Southport, United Kingdom

5:33 AM BST on May 26, 2015 (GMT +0100)
Birkdale | | Change Station
CLOSE
Current Station
Personal Weather Station
Location: Southport,
Elevation: 39 ft
Nearby Weather Stations

Elev 39 ft 53.63 °N, 3.03 °W | Updated 1 second ago

Scattered Clouds
Scattered Clouds
51.4 °F
Feels Like 51.4 °F
N
1.4
Wind Variable Wind from WNW
Gusts 7.6 mph

Today
High -- | Low -- °F
--% Chance of Precip.
Yesterday
High -- | Low -- °F
Precip. -- in
4:55 AM 9:23 PM
First Quarter, 54% visible
Pressure 30.18 in
Visibility 6.2 miles
Clouds Few 1900 ft
Scattered Clouds 3200 ft
Dew Point 47 °F
Humidity 86%
Rainfall 0.00 in
Snow Depth Not available.
UV 0 out of 12
Pollen Not available.
Air Quality Not available.
Flu Activity Not available.
METAR EGGP 260420Z 30011KT 9999 FEW019 SCT032 11/08 Q1022

More Conditions Fewer Conditions

Pressure 30.18 in
Visibility 6.2 miles
Clouds Few 1900 ft
Scattered Clouds 3200 ft
Dew Point 47 °F
Humidity 86%
Rainfall 0.00 in
Snow Depth Not available.
UV 0 out of 12
Pollen Not available.
Air Quality Not available.
Flu Activity Not available.
METAR EGGP 260420Z 30011KT 9999 FEW019 SCT032 11/08 Q1022

More Conditions Fewer Conditions

10-Day Weather Forecast

Almanac

Astronomy

May. 26, 2015 Rise Set
Actual Time
Civil Twilight
Nautical Twilight
Astronomical Twilight
Moon
Length of Visible Light
Length of Day
Tomorrow will be .
, % of the Moon is Illuminated

Today's Extremes

Country Highs Country Lows

Community

WunderPhotos

Upload Photos

1,824,278 photos uploaded!

WunderBlogs® & News

Nearby

Air Quality

  Air Quality AQ Index Pollutant
Not available.

Snow Depth

Station Depth Elevation

Earthquake Activity

City Distance Mag. Time & Date
Minimum magnitude displayed is 2.5.

Coastal Water Temperatures

Place Temperature

Stations

Nearby Weather Stations

Station Location Temp. Windchill Dew Point Humidity Wind Precip. Elev Updated Type